createdAt,value
2023-01-22T00:01:09.470Z,2.60
2023-01-22T00:03:40.895Z,2.50
2023-01-22T00:06:09.466Z,2.60
2023-01-22T00:08:37.264Z,2.60
2023-01-22T00:11:05.050Z,2.60
2023-01-22T00:13:32.093Z,2.60
2023-01-22T00:16:00.019Z,2.60
2023-01-22T00:18:27.223Z,2.70
2023-01-22T00:20:55.543Z,2.70
2023-01-22T00:23:23.389Z,2.60
2023-01-22T00:25:59.682Z,2.70
2023-01-22T00:28:26.518Z,2.70
2023-01-22T00:31:04.881Z,2.70
2023-01-22T00:33:32.682Z,2.90
2023-01-22T00:36:07.847Z,2.70
2023-01-22T00:38:34.822Z,2.70
2023-01-22T00:41:02.882Z,2.90
2023-01-22T00:43:30.366Z,2.70
2023-01-22T00:45:57.323Z,2.70
2023-01-22T00:48:24.333Z,2.70
2023-01-22T00:50:51.306Z,3.00
2023-01-22T00:53:18.225Z,2.70
2023-01-22T00:56:01.878Z,2.70
2023-01-22T00:58:29.104Z,2.70
2023-01-22T01:00:56.816Z,2.80
2023-01-22T01:03:32.819Z,2.70
2023-01-22T01:06:02.734Z,2.70
2023-01-22T01:08:31.932Z,2.70
2023-01-22T01:11:02.137Z,2.70
2023-01-22T01:13:32.628Z,2.80
2023-01-22T01:16:08.187Z,2.80
2023-01-22T01:18:35.850Z,2.90
2023-01-22T01:21:04.821Z,2.90
2023-01-22T01:23:31.719Z,2.90
2023-01-22T01:25:58.880Z,3.10
2023-01-22T01:28:26.411Z,3.10
2023-01-22T01:30:53.249Z,3.00
2023-01-22T01:33:20.104Z,3.00
2023-01-22T01:35:47.031Z,3.00
2023-01-22T01:38:13.892Z,3.00
2023-01-22T01:40:44.612Z,3.20
2023-01-22T01:43:16.290Z,3.10
2023-01-22T01:45:43.403Z,3.10
2023-01-22T01:48:25.899Z,3.10
2023-01-22T01:50:58.146Z,3.10
2023-01-22T01:53:25.535Z,3.30
2023-01-22T01:55:54.251Z,3.10
2023-01-22T01:58:21.764Z,3.20
2023-01-22T02:00:53.917Z,3.20
2023-01-22T02:03:21.792Z,3.20
2023-01-22T02:05:48.697Z,3.10
2023-01-22T02:08:16.525Z,3.20
2023-01-22T02:10:44.503Z,3.10
2023-01-22T02:13:17.152Z,3.10
2023-01-22T02:15:44.187Z,3.10
2023-01-22T02:18:11.041Z,3.10
2023-01-22T02:20:39.551Z,3.10
2023-01-22T02:23:06.788Z,3.30
2023-01-22T02:25:34.030Z,3.30
2023-01-22T02:28:01.228Z,3.00
2023-01-22T02:30:28.665Z,3.60
2023-01-22T02:32:55.591Z,3.00
2023-01-22T02:35:22.487Z,3.00
2023-01-22T02:37:49.305Z,2.70
2023-01-22T02:40:16.493Z,2.70
2023-01-22T02:42:43.668Z,2.60
2023-01-22T02:45:11.043Z,2.80
2023-01-22T02:47:37.935Z,2.60
2023-01-22T02:50:05.483Z,2.60
2023-01-22T02:52:32.348Z,2.60
2023-01-22T02:54:59.362Z,2.90
2023-01-22T02:57:26.265Z,2.60
2023-01-22T02:59:53.115Z,2.60
2023-01-22T03:02:20.179Z,2.60
2023-01-22T03:04:50.238Z,2.60
2023-01-22T03:07:17.959Z,2.70
2023-01-22T03:09:45.753Z,2.70
2023-01-22T03:12:12.997Z,2.70
2023-01-22T03:14:58.400Z,2.60
2023-01-22T03:17:43.643Z,2.60
2023-01-22T03:20:29.408Z,2.50
2023-01-22T03:22:56.253Z,2.60
2023-01-22T03:25:23.129Z,2.60
2023-01-22T03:30:35.541Z,2.70
2023-01-22T03:33:02.404Z,3.00
2023-01-22T03:35:30.533Z,2.80
2023-01-22T03:37:57.394Z,2.90
2023-01-22T03:40:24.221Z,2.80
2023-01-22T03:42:51.048Z,2.70
2023-01-22T03:45:17.891Z,2.70
2023-01-22T03:47:44.708Z,2.70
2023-01-22T03:50:11.543Z,2.60
2023-01-22T03:52:38.404Z,2.60
2023-01-22T03:55:05.574Z,2.70
2023-01-22T03:57:32.428Z,2.70
2023-01-22T04:00:02.101Z,2.70
2023-01-22T04:02:29.360Z,3.10
2023-01-22T04:04:56.212Z,2.60
2023-01-22T04:07:23.001Z,2.80
2023-01-22T04:09:49.962Z,2.80
2023-01-22T04:12:16.789Z,2.70
2023-01-22T04:14:43.796Z,2.70
2023-01-22T04:17:10.685Z,2.90
2023-01-22T04:19:37.525Z,2.80
2023-01-22T04:22:04.347Z,2.70
2023-01-22T04:24:31.144Z,2.70
2023-01-22T04:26:58.000Z,2.70
2023-01-22T04:29:24.863Z,2.70
2023-01-22T04:31:51.765Z,2.90
2023-01-22T04:34:18.624Z,2.70
2023-01-22T04:36:45.465Z,2.70
2023-01-22T04:39:12.373Z,2.70
2023-01-22T04:41:39.213Z,2.80
2023-01-22T04:44:06.071Z,2.90
2023-01-22T04:46:32.913Z,2.80
2023-01-22T04:48:59.760Z,2.70
2023-01-22T04:51:26.674Z,2.80
2023-01-22T04:53:53.627Z,2.80
2023-01-22T04:56:20.552Z,2.80
2023-01-22T04:58:47.436Z,2.80
2023-01-22T05:01:14.246Z,2.80
2023-01-22T05:03:41.124Z,2.80
2023-01-22T05:06:08.177Z,2.60
2023-01-22T05:08:35.038Z,2.50
2023-01-22T05:11:03.203Z,2.60
2023-01-22T05:13:30.287Z,2.70
2023-01-22T05:15:57.128Z,2.40
2023-01-22T05:18:24.005Z,2.50
2023-01-22T05:20:50.915Z,2.40
2023-01-22T05:23:17.780Z,2.50
2023-01-22T05:25:49.207Z,2.50
2023-01-22T05:28:16.356Z,2.90
2023-01-22T05:30:43.288Z,2.60
2023-01-22T05:33:11.492Z,2.70
2023-01-22T05:35:38.422Z,2.90
2023-01-22T05:38:05.411Z,2.60
2023-01-22T05:40:32.247Z,2.60
2023-01-22T05:42:59.133Z,3.10
2023-01-22T05:45:25.966Z,2.60
2023-01-22T05:47:53.776Z,3.20
2023-01-22T05:50:22.405Z,2.70
2023-01-22T05:52:54.460Z,2.70
2023-01-22T05:55:21.555Z,2.80
2023-01-22T05:57:48.447Z,2.80
2023-01-22T06:00:16.141Z,2.80
2023-01-22T06:02:43.414Z,2.80
2023-01-22T06:05:10.355Z,2.80
2023-01-22T06:07:37.172Z,2.80
2023-01-22T06:10:04.331Z,2.80
2023-01-22T06:12:31.224Z,2.80
2023-01-22T06:14:58.039Z,2.80
2023-01-22T06:17:24.874Z,3.00
2023-01-22T06:19:51.675Z,3.10
2023-01-22T06:22:19.250Z,2.90
2023-01-22T06:24:46.155Z,2.90
2023-01-22T06:27:13.052Z,3.40
2023-01-22T06:29:40.295Z,2.90
2023-01-22T06:32:07.305Z,3.00
2023-01-22T06:34:34.190Z,3.00
2023-01-22T06:37:01.106Z,3.00
2023-01-22T06:39:28.020Z,3.00
2023-01-22T06:41:54.820Z,3.00
2023-01-22T06:44:21.684Z,3.00
2023-01-22T06:46:48.702Z,3.00
2023-01-22T06:49:15.590Z,3.20
2023-01-22T06:51:42.884Z,3.00
2023-01-22T06:54:12.600Z,3.20
2023-01-22T06:56:39.478Z,3.10
2023-01-22T06:59:06.398Z,3.10
2023-01-22T07:01:33.428Z,3.10
2023-01-22T07:04:00.412Z,3.10
2023-01-22T07:06:27.313Z,3.00
2023-01-22T07:08:55.215Z,3.00
2023-01-22T07:11:22.091Z,3.00
2023-01-22T07:13:48.964Z,3.00
2023-01-22T07:16:15.831Z,3.00
2023-01-22T07:18:42.735Z,3.00
2023-01-22T07:21:11.855Z,3.00
2023-01-22T07:23:38.780Z,3.10
2023-01-22T07:26:05.649Z,3.00
2023-01-22T07:28:33.034Z,3.30
2023-01-22T07:31:00.004Z,3.40
2023-01-22T07:33:26.940Z,3.10
2023-01-22T07:35:56.998Z,3.00
2023-01-22T07:38:24.261Z,3.10
2023-01-22T07:40:51.237Z,3.10
2023-01-22T07:43:18.159Z,3.00
2023-01-22T07:45:45.491Z,3.10
2023-01-22T07:48:12.543Z,3.00
2023-01-22T07:50:40.253Z,3.00
2023-01-22T07:53:08.221Z,3.00
2023-01-22T07:55:35.211Z,3.00
2023-01-22T07:58:04.818Z,3.00
2023-01-22T08:00:32.497Z,3.00
2023-01-22T08:02:59.406Z,3.00
2023-01-22T08:05:26.482Z,3.00
2023-01-22T08:07:53.367Z,3.00
2023-01-22T08:10:20.609Z,3.00
2023-01-22T08:12:47.777Z,3.00
2023-01-22T08:15:14.829Z,3.00
2023-01-22T08:17:42.069Z,3.00
2023-01-22T08:20:10.201Z,3.30
2023-01-22T08:22:37.029Z,3.00
2023-01-22T08:25:04.115Z,3.10
2023-01-22T08:27:31.076Z,3.00
2023-01-22T08:29:58.037Z,3.00
2023-01-22T08:32:25.106Z,3.20
2023-01-22T08:34:54.271Z,3.00
2023-01-22T08:37:22.790Z,3.00
2023-01-22T08:39:50.097Z,3.00
2023-01-22T08:42:17.306Z,2.90
2023-01-22T08:44:44.142Z,2.90
2023-01-22T08:47:11.588Z,3.10
2023-01-22T08:49:38.525Z,3.00
2023-01-22T08:52:06.003Z,2.90
2023-01-22T08:54:33.000Z,3.10
2023-01-22T08:57:00.257Z,3.00
2023-01-22T08:59:28.027Z,3.10
2023-01-22T09:01:58.622Z,3.10
2023-01-22T09:04:26.027Z,3.00
2023-01-22T09:06:52.978Z,3.10
2023-01-22T09:09:19.834Z,3.10
2023-01-22T09:11:48.022Z,3.40
2023-01-22T09:14:14.895Z,3.30
2023-01-22T09:16:41.793Z,3.20
2023-01-22T09:19:08.694Z,3.20
2023-01-22T09:21:37.399Z,3.30
2023-01-22T09:24:05.306Z,3.20
2023-01-22T09:26:32.525Z,3.10
2023-01-22T09:29:05.807Z,3.10
2023-01-22T09:31:34.258Z,3.20
2023-01-22T09:34:01.693Z,3.30
2023-01-22T09:36:28.915Z,3.30
2023-01-22T09:38:56.067Z,3.30
2023-01-22T09:41:28.453Z,3.30
2023-01-22T09:44:00.724Z,3.30
2023-01-22T09:46:46.441Z,3.40
2023-01-22T09:49:19.903Z,3.40
2023-01-22T09:52:06.317Z,3.50
2023-01-22T09:54:33.844Z,3.50
2023-01-22T09:57:04.310Z,3.50
2023-01-22T09:59:45.360Z,3.50
2023-01-22T10:02:36.943Z,3.50
2023-01-22T10:05:28.627Z,3.50
2023-01-22T10:08:19.723Z,3.40
2023-01-22T10:10:47.328Z,3.60
2023-01-22T10:13:32.763Z,3.60
2023-01-22T10:16:00.152Z,3.50
2023-01-22T10:18:32.855Z,3.50
2023-01-22T10:21:03.522Z,3.50
2023-01-22T10:23:33.733Z,3.50
2023-01-22T10:26:14.798Z,3.70
2023-01-22T10:28:51.413Z,3.80
2023-01-22T10:31:28.467Z,3.70
2023-01-22T10:33:57.822Z,3.70
2023-01-22T10:36:25.572Z,3.70
2023-01-22T10:39:10.891Z,3.80
2023-01-22T10:41:38.348Z,3.70
2023-01-22T10:44:23.523Z,3.80
2023-01-22T10:46:51.765Z,3.70
2023-01-22T10:49:24.204Z,3.70
2023-01-22T10:52:06.339Z,3.70
2023-01-22T10:54:43.796Z,3.70
2023-01-22T10:57:27.534Z,3.70
2023-01-22T11:00:16.074Z,3.70
2023-01-22T11:02:48.601Z,3.70
2023-01-22T11:05:24.713Z,3.70
2023-01-22T11:08:04.952Z,3.70
2023-01-22T11:10:36.550Z,3.70
2023-01-22T11:13:40.499Z,3.70
2023-01-22T11:16:17.506Z,3.70
2023-01-22T11:18:51.681Z,3.80
2023-01-22T11:21:29.024Z,3.90
2023-01-22T11:23:59.225Z,4.00
2023-01-22T11:26:40.777Z,4.10
2023-01-22T11:29:18.187Z,4.10
2023-01-22T11:31:58.379Z,4.10
2023-01-22T11:34:45.172Z,4.20
2023-01-22T11:37:29.249Z,4.20
2023-01-22T11:40:37.532Z,4.20
2023-01-22T11:43:30.429Z,4.20
2023-01-22T11:46:27.995Z,4.20
2023-01-22T11:49:10.325Z,4.20
2023-01-22T11:51:47.748Z,4.20
2023-01-22T11:54:47.009Z,4.10
2023-01-22T11:57:22.646Z,4.00
2023-01-22T12:00:20.769Z,4.00
2023-01-22T12:03:06.946Z,3.90
2023-01-22T12:05:39.556Z,3.90
2023-01-22T12:08:26.917Z,3.90
2023-01-22T12:11:06.112Z,3.80
2023-01-22T12:13:58.928Z,3.80
2023-01-22T12:16:39.407Z,3.80
2023-01-22T12:19:28.111Z,3.80
2023-01-22T12:22:20.802Z,3.90
2023-01-22T12:25:01.918Z,3.90
2023-01-22T12:27:35.093Z,3.90
2023-01-22T12:30:18.399Z,4.10
2023-01-22T12:32:51.277Z,3.90
2023-01-22T12:35:20.894Z,4.00
2023-01-22T12:37:56.282Z,3.90
2023-01-22T12:40:45.860Z,3.90
2023-01-22T12:43:13.169Z,3.90
2023-01-22T12:45:49.117Z,3.90
2023-01-22T12:48:34.829Z,3.90
2023-01-22T12:51:01.853Z,3.90
2023-01-22T12:53:34.628Z,3.90
2023-01-22T12:56:03.224Z,3.80
2023-01-22T12:58:33.131Z,3.90
2023-01-22T13:01:12.243Z,3.80
2023-01-22T13:03:41.914Z,4.00
2023-01-22T13:06:19.342Z,3.80
2023-01-22T13:08:46.591Z,3.80
2023-01-22T13:11:27.065Z,3.90
2023-01-22T13:14:14.306Z,3.90
2023-01-22T13:16:49.600Z,3.90
2023-01-22T13:19:29.442Z,3.90
2023-01-22T13:22:00.648Z,3.90
2023-01-22T13:24:27.536Z,3.80
2023-01-22T13:26:56.632Z,3.80
2023-01-22T13:29:33.260Z,3.80
2023-01-22T13:32:15.972Z,3.80
2023-01-22T13:34:42.964Z,3.90
2023-01-22T13:37:27.281Z,3.90
2023-01-22T13:39:54.251Z,3.90
2023-01-22T13:42:21.815Z,4.00
2023-01-22T13:44:51.347Z,3.90
2023-01-22T13:47:28.700Z,3.90
2023-01-22T13:49:55.768Z,3.90
2023-01-22T13:52:23.220Z,3.90
2023-01-22T13:55:15.931Z,3.90
2023-01-22T13:57:57.244Z,4.00
2023-01-22T14:00:26.360Z,4.00
2023-01-22T14:02:53.923Z,3.90
2023-01-22T14:05:26.262Z,4.00
2023-01-22T14:08:09.080Z,4.00
2023-01-22T14:10:36.292Z,4.00
2023-01-22T14:13:12.189Z,4.00
2023-01-22T14:15:40.837Z,4.00
2023-01-22T14:18:21.114Z,4.00
2023-01-22T14:20:48.567Z,4.00
2023-01-22T14:23:16.209Z,3.90
2023-01-22T14:25:54.251Z,3.90
2023-01-22T14:28:22.208Z,3.80
2023-01-22T14:30:49.563Z,3.80
2023-01-22T14:33:24.189Z,3.80
2023-01-22T14:35:52.745Z,3.80
2023-01-22T14:38:19.809Z,3.90
2023-01-22T14:40:46.797Z,3.90
2023-01-22T14:43:13.736Z,3.90
2023-01-22T14:45:41.844Z,3.80
2023-01-22T14:48:15.279Z,3.90
2023-01-22T14:50:42.913Z,3.80
2023-01-22T14:53:10.221Z,3.80
2023-01-22T14:55:37.612Z,3.80
2023-01-22T14:58:06.204Z,3.80
2023-01-22T15:00:33.211Z,3.80
2023-01-22T15:03:00.835Z,3.80
2023-01-22T15:05:28.467Z,3.80
2023-01-22T15:07:55.629Z,3.80
2023-01-22T15:10:22.977Z,3.80
2023-01-22T15:12:52.579Z,3.80
2023-01-22T15:15:25.295Z,3.80
2023-01-22T15:17:57.225Z,3.80
2023-01-22T15:20:24.678Z,4.00
2023-01-22T15:22:51.672Z,3.80
2023-01-22T15:25:19.086Z,3.80
2023-01-22T15:27:46.440Z,3.80
2023-01-22T15:30:14.318Z,3.80
2023-01-22T15:32:41.230Z,3.80
2023-01-22T15:35:08.565Z,3.80
2023-01-22T15:37:35.407Z,3.80
2023-01-22T15:40:02.465Z,3.80
2023-01-22T15:42:29.375Z,3.80
2023-01-22T15:44:56.288Z,3.80
2023-01-22T15:47:23.352Z,3.80
2023-01-22T15:49:50.263Z,3.80
2023-01-22T15:52:17.259Z,3.80
2023-01-22T15:54:44.261Z,3.70
2023-01-22T15:57:11.170Z,3.70
2023-01-22T15:59:41.267Z,3.70
2023-01-22T16:02:11.712Z,3.60
2023-01-22T16:04:38.643Z,3.60
2023-01-22T16:07:05.566Z,3.60
2023-01-22T16:09:32.421Z,3.60
2023-01-22T16:11:59.751Z,3.50
2023-01-22T16:14:28.367Z,3.50
2023-01-22T16:16:55.305Z,3.60
2023-01-22T16:19:22.325Z,3.70
2023-01-22T16:21:49.245Z,3.50
2023-01-22T16:24:16.083Z,3.50
2023-01-22T16:26:42.939Z,3.50
2023-01-22T16:29:10.874Z,3.60
2023-01-22T16:31:38.066Z,3.90
2023-01-22T16:34:11.124Z,3.60
2023-01-22T16:36:38.554Z,3.60
2023-01-22T16:39:06.027Z,3.60
2023-01-22T16:41:35.531Z,3.70
2023-01-22T16:44:07.383Z,3.70
2023-01-22T16:46:37.173Z,3.80
2023-01-22T16:49:07.315Z,3.80
2023-01-22T16:51:37.287Z,3.90
2023-01-22T16:54:06.000Z,3.80
2023-01-22T16:56:33.713Z,3.90
2023-01-22T16:59:01.074Z,3.80
2023-01-22T17:01:29.888Z,3.80
2023-01-22T17:03:57.004Z,3.80
2023-01-22T17:06:39.735Z,3.80
2023-01-22T17:09:07.883Z,3.80
2023-01-22T17:11:34.758Z,3.70
2023-01-22T17:14:01.643Z,3.70
2023-01-22T17:16:28.550Z,3.70
2023-01-22T17:18:56.104Z,3.70
2023-01-22T17:21:23.004Z,3.70
2023-01-22T17:23:49.824Z,3.70
2023-01-22T17:26:17.409Z,3.70
2023-01-22T17:28:45.844Z,3.70
2023-01-22T17:31:18.928Z,3.70
2023-01-22T17:33:46.636Z,3.80
2023-01-22T17:36:15.939Z,3.70
2023-01-22T17:38:43.212Z,3.70
2023-01-22T17:41:16.038Z,3.70
2023-01-22T17:43:45.350Z,3.70
2023-01-22T17:46:18.106Z,3.70
2023-01-22T17:48:46.594Z,3.80
2023-01-22T17:51:16.402Z,3.80
2023-01-22T17:53:44.806Z,3.80
2023-01-22T17:56:20.345Z,3.80
2023-01-22T17:58:54.025Z,3.80
2023-01-22T18:01:23.840Z,3.80
2023-01-22T18:03:51.310Z,3.80
2023-01-22T18:06:19.483Z,3.90
2023-01-22T18:08:46.580Z,3.80
2023-01-22T18:11:16.961Z,3.90
2023-01-22T18:13:44.765Z,3.80
2023-01-22T18:16:14.583Z,3.90
2023-01-22T18:18:42.803Z,3.80
2023-01-22T18:21:16.413Z,3.90
2023-01-22T18:23:44.400Z,3.90
2023-01-22T18:26:12.064Z,3.40
2023-01-22T18:28:38.980Z,3.90
2023-01-22T18:31:12.168Z,3.80
2023-01-22T18:33:40.066Z,3.90
2023-01-22T18:36:12.331Z,3.80
2023-01-22T18:38:40.396Z,3.80
2023-01-22T18:41:12.412Z,3.80
2023-01-22T18:43:40.025Z,3.80
2023-01-22T18:46:12.041Z,3.80
2023-01-22T18:48:40.770Z,3.80
2023-01-22T18:51:13.239Z,3.80
2023-01-22T18:53:41.731Z,3.80
2023-01-22T18:56:10.645Z,3.80
2023-01-22T18:58:38.609Z,3.80
2023-01-22T19:01:13.935Z,3.80
2023-01-22T19:03:45.123Z,3.80
2023-01-22T19:06:16.348Z,3.80
2023-01-22T19:08:45.029Z,3.80
2023-01-22T19:11:13.167Z,3.80
2023-01-22T19:13:41.275Z,3.90
2023-01-22T19:16:10.999Z,3.90
2023-01-22T19:18:42.239Z,3.90
2023-01-22T19:21:12.748Z,3.90
2023-01-22T19:23:41.096Z,3.90
2023-01-22T19:26:12.325Z,3.90
2023-01-22T19:28:39.615Z,3.90
2023-01-22T19:31:19.252Z,3.90
2023-01-22T19:33:46.992Z,3.90
2023-01-22T19:36:14.283Z,3.90
2023-01-22T19:38:41.170Z,3.90
2023-01-22T19:41:08.748Z,3.90
2023-01-22T19:43:36.279Z,3.90
2023-01-22T19:46:06.326Z,3.80
2023-01-22T19:48:36.300Z,3.80
2023-01-22T19:51:09.381Z,3.90
2023-01-22T19:53:37.087Z,3.80
2023-01-22T19:56:05.065Z,3.80
2023-01-22T19:58:32.251Z,3.80
2023-01-22T20:00:59.239Z,3.80
2023-01-22T20:03:27.141Z,3.80
2023-01-22T20:05:54.617Z,3.90
2023-01-22T20:08:21.598Z,3.80
2023-01-22T20:10:51.161Z,3.90
2023-01-22T20:13:18.092Z,3.80
2023-01-22T20:15:45.161Z,3.80
2023-01-22T20:18:12.178Z,3.80
2023-01-22T20:20:39.101Z,3.80
2023-01-22T20:23:05.974Z,3.80
2023-01-22T20:25:32.949Z,3.80
2023-01-22T20:28:00.925Z,3.80
2023-01-22T20:30:28.169Z,3.90
2023-01-22T20:32:56.664Z,3.90
2023-01-22T20:35:23.713Z,3.70
2023-01-22T20:37:50.778Z,3.70
2023-01-22T20:40:17.847Z,3.70
2023-01-22T20:42:44.768Z,3.80
2023-01-22T20:45:11.830Z,3.80
2023-01-22T20:47:38.734Z,3.80
2023-01-22T20:50:06.549Z,3.90
2023-01-22T20:52:33.490Z,3.80
2023-01-22T20:55:02.486Z,3.90
2023-01-22T20:57:30.739Z,3.80
2023-01-22T20:59:57.722Z,3.90
2023-01-22T21:02:24.697Z,3.90
2023-01-22T21:04:52.875Z,3.80
2023-01-22T21:07:20.417Z,3.90
2023-01-22T21:09:47.392Z,3.90
2023-01-22T21:12:14.282Z,3.90
2023-01-22T21:14:41.625Z,3.90
2023-01-22T21:17:08.681Z,3.90
2023-01-22T21:19:35.628Z,3.90
2023-01-22T21:22:03.909Z,3.90
2023-01-22T21:24:31.442Z,3.90
2023-01-22T21:26:58.552Z,3.90
2023-01-22T21:29:25.471Z,3.90
2023-01-22T21:31:54.004Z,3.90
2023-01-22T21:34:23.238Z,4.00
2023-01-22T21:36:53.855Z,4.00
2023-01-22T21:39:24.696Z,4.00
2023-01-22T21:41:52.234Z,3.90
2023-01-22T21:44:38.540Z,3.90
2023-01-22T21:47:05.633Z,3.90
2023-01-22T21:49:35.133Z,3.90
2023-01-22T21:52:05.681Z,3.90
2023-01-22T21:54:38.444Z,3.90
2023-01-22T21:57:06.819Z,3.90
2023-01-22T21:59:36.167Z,3.90
2023-01-22T22:02:03.979Z,3.90
2023-01-22T22:04:31.449Z,3.90
2023-01-22T22:06:58.475Z,3.90
2023-01-22T22:09:28.025Z,3.80
2023-01-22T22:11:55.765Z,3.80
2023-01-22T22:14:22.635Z,3.80
2023-01-22T22:16:49.998Z,3.80
2023-01-22T22:19:18.061Z,3.80
2023-01-22T22:21:45.756Z,3.90
2023-01-22T22:24:13.474Z,3.80
2023-01-22T22:26:40.932Z,3.90
2023-01-22T22:29:09.066Z,3.90
2023-01-22T22:31:36.969Z,3.90
2023-01-22T22:34:04.330Z,3.80
2023-01-22T22:36:31.927Z,3.80
2023-01-22T22:39:00.987Z,3.90
2023-01-22T22:41:30.676Z,4.00
2023-01-22T22:43:57.757Z,3.90
2023-01-22T22:46:30.587Z,4.00
2023-01-22T22:49:00.271Z,3.80
2023-01-22T22:51:31.515Z,3.90
2023-01-22T22:54:04.671Z,3.70
2023-01-22T22:56:31.980Z,3.80
2023-01-22T22:59:00.988Z,3.80
2023-01-22T23:01:30.225Z,3.80
2023-01-22T23:03:57.634Z,3.80
2023-01-22T23:06:27.411Z,3.90
2023-01-22T23:08:55.920Z,3.90
2023-01-22T23:11:25.407Z,3.90
2023-01-22T23:13:52.856Z,3.90
2023-01-22T23:16:22.127Z,4.00
2023-01-22T23:18:51.263Z,3.90
2023-01-22T23:21:23.665Z,3.90
2023-01-22T23:23:51.803Z,3.90
2023-01-22T23:26:26.563Z,3.90
2023-01-22T23:28:56.531Z,3.90
2023-01-22T23:31:24.556Z,4.10
2023-01-22T23:33:52.023Z,4.00
2023-01-22T23:36:19.129Z,4.00
2023-01-22T23:38:46.451Z,4.00
2023-01-22T23:41:16.347Z,4.00
2023-01-22T23:43:43.588Z,4.10
2023-01-22T23:46:13.081Z,4.20
2023-01-22T23:48:40.215Z,4.00
2023-01-22T23:51:08.789Z,4.00
2023-01-22T23:53:37.493Z,4.00
2023-01-22T23:56:05.374Z,4.00
2023-01-22T23:58:33.415Z,4.00
